sensor_id;sensor_type;location;lat;lon;timestamp;P1;durP1;ratioP1;P2;durP2;ratioP2
3819;SDS011;1925;51.356;9.530;2023-04-07T00:00:28;8.75;;;7.05;;
3819;SDS011;1925;51.356;9.530;2023-04-07T00:02:54;9.80;;;7.55;;
3819;SDS011;1925;51.356;9.530;2023-04-07T00:05:21;9.88;;;7.40;;
3819;SDS011;1925;51.356;9.530;2023-04-07T00:07:47;10.52;;;7.20;;
3819;SDS011;1925;51.356;9.530;2023-04-07T00:10:13;21.42;;;7.47;;
3819;SDS011;1925;51.356;9.530;2023-04-07T00:12:39;9.48;;;6.97;;
3819;SDS011;1925;51.356;9.530;2023-04-07T00:15:05;12.37;;;6.20;;
3819;SDS011;1925;51.356;9.530;2023-04-07T00:17:31;8.90;;;7.25;;
3819;SDS011;1925;51.356;9.530;2023-04-07T00:19:57;9.20;;;7.00;;
3819;SDS011;1925;51.356;9.530;2023-04-07T00:22:23;9.73;;;7.90;;
3819;SDS011;1925;51.356;9.530;2023-04-07T00:24:49;10.87;;;8.70;;
3819;SDS011;1925;51.356;9.530;2023-04-07T00:27:15;11.43;;;8.20;;
3819;SDS011;1925;51.356;9.530;2023-04-07T00:29:41;11.90;;;8.20;;
3819;SDS011;1925;51.356;9.530;2023-04-07T00:32:10;10.18;;;7.45;;
3819;SDS011;1925;51.356;9.530;2023-04-07T00:34:37;10.82;;;7.25;;
3819;SDS011;1925;51.356;9.530;2023-04-07T00:37:03;10.47;;;7.47;;
3819;SDS011;1925;51.356;9.530;2023-04-07T00:39:31;11.35;;;7.78;;
3819;SDS011;1925;51.356;9.530;2023-04-07T00:41:57;10.40;;;8.13;;
3819;SDS011;1925;51.356;9.530;2023-04-07T00:44:23;11.63;;;8.33;;
3819;SDS011;1925;51.356;9.530;2023-04-07T00:46:49;11.18;;;7.65;;
3819;SDS011;1925;51.356;9.530;2023-04-07T00:49:15;9.43;;;7.37;;
3819;SDS011;1925;51.356;9.530;2023-04-07T00:51:42;9.52;;;7.90;;
3819;SDS011;1925;51.356;9.530;2023-04-07T00:54:08;8.68;;;7.57;;
3819;SDS011;1925;51.356;9.530;2023-04-07T00:56:35;9.02;;;7.82;;
3819;SDS011;1925;51.356;9.530;2023-04-07T00:59:02;9.60;;;7.60;;
3819;SDS011;1925;51.356;9.530;2023-04-07T01:01:39;9.70;;;7.55;;
3819;SDS011;1925;51.356;9.530;2023-04-07T01:04:08;8.82;;;7.35;;
3819;SDS011;1925;51.356;9.530;2023-04-07T01:06:35;10.50;;;7.30;;
3819;SDS011;1925;51.356;9.530;2023-04-07T01:09:09;11.95;;;7.57;;
3819;SDS011;1925;51.356;9.530;2023-04-07T01:11:39;10.55;;;7.80;;
3819;SDS011;1925;51.356;9.530;2023-04-07T01:14:07;12.20;;;8.68;;
3819;SDS011;1925;51.356;9.530;2023-04-07T01:16:34;11.25;;;7.30;;
3819;SDS011;1925;51.356;9.530;2023-04-07T01:19:03;11.77;;;9.05;;
3819;SDS011;1925;51.356;9.530;2023-04-07T01:21:33;9.35;;;7.82;;
3819;SDS011;1925;51.356;9.530;2023-04-07T01:24:09;10.80;;;7.63;;
3819;SDS011;1925;51.356;9.530;2023-04-07T01:26:41;10.63;;;8.60;;
3819;SDS011;1925;51.356;9.530;2023-04-07T01:29:28;11.63;;;7.95;;
3819;SDS011;1925;51.356;9.530;2023-04-07T01:31:55;9.75;;;7.70;;
3819;SDS011;1925;51.356;9.530;2023-04-07T01:34:23;10.30;;;7.60;;
3819;SDS011;1925;51.356;9.530;2023-04-07T01:36:50;10.27;;;7.70;;
3819;SDS011;1925;51.356;9.530;2023-04-07T01:39:17;12.45;;;9.27;;
3819;SDS011;1925;51.356;9.530;2023-04-07T01:41:43;11.38;;;8.85;;
3819;SDS011;1925;51.356;9.530;2023-04-07T01:44:09;12.43;;;8.55;;
3819;SDS011;1925;51.356;9.530;2023-04-07T01:46:35;8.95;;;7.78;;
3819;SDS011;1925;51.356;9.530;2023-04-07T01:49:01;9.10;;;7.50;;
3819;SDS011;1925;51.356;9.530;2023-04-07T01:51:28;11.02;;;7.47;;
3819;SDS011;1925;51.356;9.530;2023-04-07T01:53:55;10.98;;;8.10;;
3819;SDS011;1925;51.356;9.530;2023-04-07T01:56:21;10.15;;;6.75;;
3819;SDS011;1925;51.356;9.530;2023-04-07T01:58:47;8.80;;;6.87;;
3819;SDS011;1925;51.356;9.530;2023-04-07T02:01:13;7.07;;;5.97;;
3819;SDS011;1925;51.356;9.530;2023-04-07T02:03:42;7.10;;;6.10;;
3819;SDS011;1925;51.356;9.530;2023-04-07T02:06:09;7.40;;;5.95;;
3819;SDS011;1925;51.356;9.530;2023-04-07T02:08:36;7.03;;;6.28;;
3819;SDS011;1925;51.356;9.530;2023-04-07T02:11:05;10.30;;;6.10;;
3819;SDS011;1925;51.356;9.530;2023-04-07T02:13:32;6.75;;;5.60;;
3819;SDS011;1925;51.356;9.530;2023-04-07T02:15:58;6.43;;;4.45;;
3819;SDS011;1925;51.356;9.530;2023-04-07T02:18:25;5.57;;;4.55;;
3819;SDS011;1925;51.356;9.530;2023-04-07T02:20:51;8.20;;;4.07;;
3819;SDS011;1925;51.356;9.530;2023-04-07T02:23:18;4.50;;;4.10;;
3819;SDS011;1925;51.356;9.530;2023-04-07T02:25:44;5.07;;;3.70;;
3819;SDS011;1925;51.356;9.530;2023-04-07T02:28:10;4.20;;;3.80;;
3819;SDS011;1925;51.356;9.530;2023-04-07T02:30:36;7.13;;;4.13;;
3819;SDS011;1925;51.356;9.530;2023-04-07T02:33:02;4.70;;;4.23;;
3819;SDS011;1925;51.356;9.530;2023-04-07T02:35:28;3.90;;;3.50;;
3819;SDS011;1925;51.356;9.530;2023-04-07T02:37:54;4.70;;;4.15;;
3819;SDS011;1925;51.356;9.530;2023-04-07T02:40:20;4.80;;;4.30;;
3819;SDS011;1925;51.356;9.530;2023-04-07T02:42:46;6.90;;;4.03;;
3819;SDS011;1925;51.356;9.530;2023-04-07T02:45:12;4.47;;;3.73;;
3819;SDS011;1925;51.356;9.530;2023-04-07T02:47:38;4.77;;;4.23;;
3819;SDS011;1925;51.356;9.530;2023-04-07T02:50:04;5.28;;;3.92;;
3819;SDS011;1925;51.356;9.530;2023-04-07T02:52:31;5.35;;;4.20;;
3819;SDS011;1925;51.356;9.530;2023-04-07T02:54:57;5.90;;;4.70;;
3819;SDS011;1925;51.356;9.530;2023-04-07T02:57:23;5.30;;;4.10;;
3819;SDS011;1925;51.356;9.530;2023-04-07T02:59:48;4.77;;;3.60;;
3819;SDS011;1925;51.356;9.530;2023-04-07T03:02:14;4.15;;;3.75;;
3819;SDS011;1925;51.356;9.530;2023-04-07T03:04:40;5.03;;;4.43;;
3819;SDS011;1925;51.356;9.530;2023-04-07T03:07:06;7.95;;;5.00;;
3819;SDS011;1925;51.356;9.530;2023-04-07T03:09:32;6.57;;;3.57;;
3819;SDS011;1925;51.356;9.530;2023-04-07T03:11:59;4.65;;;4.15;;
3819;SDS011;1925;51.356;9.530;2023-04-07T03:14:26;4.13;;;3.70;;
3819;SDS011;1925;51.356;9.530;2023-04-07T03:16:52;6.20;;;4.53;;
3819;SDS011;1925;51.356;9.530;2023-04-07T03:19:17;4.50;;;4.10;;
3819;SDS011;1925;51.356;9.530;2023-04-07T03:21:43;4.60;;;3.67;;
3819;SDS011;1925;51.356;9.530;2023-04-07T03:24:09;5.07;;;4.20;;
3819;SDS011;1925;51.356;9.530;2023-04-07T03:26:35;4.20;;;3.80;;
3819;SDS011;1925;51.356;9.530;2023-04-07T03:29:02;6.15;;;4.68;;
3819;SDS011;1925;51.356;9.530;2023-04-07T03:31:28;6.20;;;4.13;;
3819;SDS011;1925;51.356;9.530;2023-04-07T03:33:54;4.30;;;3.45;;
3819;SDS011;1925;51.356;9.530;2023-04-07T03:36:20;3.95;;;3.35;;
3819;SDS011;1925;51.356;9.530;2023-04-07T03:38:47;5.85;;;4.60;;
3819;SDS011;1925;51.356;9.530;2023-04-07T03:41:13;6.03;;;4.32;;
3819;SDS011;1925;51.356;9.530;2023-04-07T03:43:39;9.57;;;4.68;;
3819;SDS011;1925;51.356;9.530;2023-04-07T03:46:05;4.80;;;4.30;;
3819;SDS011;1925;51.356;9.530;2023-04-07T03:48:31;4.35;;;3.75;;
3819;SDS011;1925;51.356;9.530;2023-04-07T03:50:58;5.75;;;4.30;;
3819;SDS011;1925;51.356;9.530;2023-04-07T03:53:24;7.18;;;5.00;;
3819;SDS011;1925;51.356;9.530;2023-04-07T03:55:50;4.60;;;4.10;;
3819;SDS011;1925;51.356;9.530;2023-04-07T03:58:16;4.37;;;3.97;;
3819;SDS011;1925;51.356;9.530;2023-04-07T04:00:42;7.83;;;5.13;;
3819;SDS011;1925;51.356;9.530;2023-04-07T04:03:08;7.00;;;5.60;;
3819;SDS011;1925;51.356;9.530;2023-04-07T04:05:34;4.90;;;4.13;;
3819;SDS011;1925;51.356;9.530;2023-04-07T04:08:00;4.20;;;3.80;;
3819;SDS011;1925;51.356;9.530;2023-04-07T04:10:26;4.37;;;3.97;;
3819;SDS011;1925;51.356;9.530;2023-04-07T04:12:52;4.60;;;4.03;;
3819;SDS011;1925;51.356;9.530;2023-04-07T04:15:18;5.23;;;4.73;;
3819;SDS011;1925;51.356;9.530;2023-04-07T04:17:44;5.23;;;4.37;;
3819;SDS011;1925;51.356;9.530;2023-04-07T04:20:10;6.30;;;5.03;;
3819;SDS011;1925;51.356;9.530;2023-04-07T04:22:36;7.43;;;5.10;;
3819;SDS011;1925;51.356;9.530;2023-04-07T04:25:03;4.83;;;4.37;;
3819;SDS011;1925;51.356;9.530;2023-04-07T04:27:29;5.50;;;4.45;;
3819;SDS011;1925;51.356;9.530;2023-04-07T04:29:55;4.55;;;4.15;;
3819;SDS011;1925;51.356;9.530;2023-04-07T04:32:21;5.07;;;4.57;;
3819;SDS011;1925;51.356;9.530;2023-04-07T04:34:47;3.83;;;3.50;;
3819;SDS011;1925;51.356;9.530;2023-04-07T04:37:13;5.73;;;4.30;;
3819;SDS011;1925;51.356;9.530;2023-04-07T04:39:39;10.03;;;4.40;;
3819;SDS011;1925;51.356;9.530;2023-04-07T04:42:05;6.23;;;4.30;;
3819;SDS011;1925;51.356;9.530;2023-04-07T04:44:31;5.30;;;4.23;;
3819;SDS011;1925;51.356;9.530;2023-04-07T04:46:57;7.53;;;4.33;;
3819;SDS011;1925;51.356;9.530;2023-04-07T04:49:23;5.00;;;4.47;;
3819;SDS011;1925;51.356;9.530;2023-04-07T04:51:49;6.57;;;5.15;;
3819;SDS011;1925;51.356;9.530;2023-04-07T04:54:16;4.88;;;4.38;;
3819;SDS011;1925;51.356;9.530;2023-04-07T04:56:41;6.20;;;5.23;;
3819;SDS011;1925;51.356;9.530;2023-04-07T04:59:07;6.87;;;5.40;;
3819;SDS011;1925;51.356;9.530;2023-04-07T05:01:33;7.30;;;5.50;;
3819;SDS011;1925;51.356;9.530;2023-04-07T05:03:59;5.78;;;4.88;;
3819;SDS011;1925;51.356;9.530;2023-04-07T05:06:25;5.97;;;5.27;;
3819;SDS011;1925;51.356;9.530;2023-04-07T05:08:52;6.03;;;5.25;;
3819;SDS011;1925;51.356;9.530;2023-04-07T05:11:18;7.30;;;5.40;;
3819;SDS011;1925;51.356;9.530;2023-04-07T05:13:45;8.23;;;5.63;;
3819;SDS011;1925;51.356;9.530;2023-04-07T05:16:11;6.20;;;5.15;;
3819;SDS011;1925;51.356;9.530;2023-04-07T05:18:37;6.70;;;5.28;;
3819;SDS011;1925;51.356;9.530;2023-04-07T05:21:03;7.97;;;5.23;;
3819;SDS011;1925;51.356;9.530;2023-04-07T05:23:29;6.23;;;4.70;;
3819;SDS011;1925;51.356;9.530;2023-04-07T05:25:55;7.07;;;4.40;;
3819;SDS011;1925;51.356;9.530;2023-04-07T05:28:21;6.60;;;4.83;;
3819;SDS011;1925;51.356;9.530;2023-04-07T05:30:47;7.43;;;4.63;;
3819;SDS011;1925;51.356;9.530;2023-04-07T05:33:13;4.90;;;4.30;;
3819;SDS011;1925;51.356;9.530;2023-04-07T05:35:39;6.00;;;4.70;;
3819;SDS011;1925;51.356;9.530;2023-04-07T05:38:05;5.28;;;4.75;;
3819;SDS011;1925;51.356;9.530;2023-04-07T05:40:31;6.67;;;4.43;;
3819;SDS011;1925;51.356;9.530;2023-04-07T05:42:57;8.90;;;6.18;;
3819;SDS011;1925;51.356;9.530;2023-04-07T05:45:23;4.38;;;3.72;;
3819;SDS011;1925;51.356;9.530;2023-04-07T05:47:49;6.23;;;4.03;;
3819;SDS011;1925;51.356;9.530;2023-04-07T05:50:15;5.63;;;4.13;;
3819;SDS011;1925;51.356;9.530;2023-04-07T05:52:41;7.13;;;5.25;;
3819;SDS011;1925;51.356;9.530;2023-04-07T05:55:07;8.23;;;4.65;;
3819;SDS011;1925;51.356;9.530;2023-04-07T05:57:33;6.35;;;4.68;;
3819;SDS011;1925;51.356;9.530;2023-04-07T05:59:59;6.43;;;4.77;;
3819;SDS011;1925;51.356;9.530;2023-04-07T06:02:25;5.30;;;4.55;;
3819;SDS011;1925;51.356;9.530;2023-04-07T06:04:51;5.27;;;4.77;;
3819;SDS011;1925;51.356;9.530;2023-04-07T06:07:17;6.57;;;4.57;;
3819;SDS011;1925;51.356;9.530;2023-04-07T06:09:43;6.73;;;4.83;;
3819;SDS011;1925;51.356;9.530;2023-04-07T06:12:09;6.13;;;4.80;;
3819;SDS011;1925;51.356;9.530;2023-04-07T06:14:36;5.70;;;4.28;;
3819;SDS011;1925;51.356;9.530;2023-04-07T06:17:02;4.22;;;3.83;;
3819;SDS011;1925;51.356;9.530;2023-04-07T06:19:28;6.17;;;5.03;;
3819;SDS011;1925;51.356;9.530;2023-04-07T06:21:54;5.63;;;4.70;;
3819;SDS011;1925;51.356;9.530;2023-04-07T06:24:20;5.07;;;4.30;;
3819;SDS011;1925;51.356;9.530;2023-04-07T06:26:49;5.10;;;4.15;;
3819;SDS011;1925;51.356;9.530;2023-04-07T06:29:15;6.47;;;4.80;;
3819;SDS011;1925;51.356;9.530;2023-04-07T06:31:41;5.07;;;4.57;;
3819;SDS011;1925;51.356;9.530;2023-04-07T06:34:07;6.93;;;5.20;;
3819;SDS011;1925;51.356;9.530;2023-04-07T06:36:33;4.30;;;3.90;;
3819;SDS011;1925;51.356;9.530;2023-04-07T06:38:59;4.97;;;4.47;;
3819;SDS011;1925;51.356;9.530;2023-04-07T06:41:25;5.60;;;4.60;;
3819;SDS011;1925;51.356;9.530;2023-04-07T06:43:51;4.70;;;4.20;;
3819;SDS011;1925;51.356;9.530;2023-04-07T06:46:17;6.23;;;4.37;;
3819;SDS011;1925;51.356;9.530;2023-04-07T06:48:44;4.47;;;4.07;;
3819;SDS011;1925;51.356;9.530;2023-04-07T06:51:10;4.53;;;4.10;;
3819;SDS011;1925;51.356;9.530;2023-04-07T06:53:36;4.38;;;3.78;;
3819;SDS011;1925;51.356;9.530;2023-04-07T06:56:06;4.47;;;3.60;;
3819;SDS011;1925;51.356;9.530;2023-04-07T06:58:33;5.38;;;3.22;;
3819;SDS011;1925;51.356;9.530;2023-04-07T07:00:59;3.90;;;3.47;;
3819;SDS011;1925;51.356;9.530;2023-04-07T07:03:26;4.43;;;3.70;;
3819;SDS011;1925;51.356;9.530;2023-04-07T07:05:53;3.92;;;3.30;;
3819;SDS011;1925;51.356;9.530;2023-04-07T07:08:20;4.82;;;3.72;;
3819;SDS011;1925;51.356;9.530;2023-04-07T07:10:46;4.22;;;3.83;;
3819;SDS011;1925;51.356;9.530;2023-04-07T07:13:12;3.70;;;3.40;;
3819;SDS011;1925;51.356;9.530;2023-04-07T07:15:38;3.87;;;3.47;;
3819;SDS011;1925;51.356;9.530;2023-04-07T07:18:04;4.20;;;3.20;;
3819;SDS011;1925;51.356;9.530;2023-04-07T07:20:30;3.83;;;3.47;;
3819;SDS011;1925;51.356;9.530;2023-04-07T07:22:56;4.23;;;3.83;;
3819;SDS011;1925;51.356;9.530;2023-04-07T07:25:22;6.03;;;3.20;;
3819;SDS011;1925;51.356;9.530;2023-04-07T07:27:50;4.70;;;3.30;;
3819;SDS011;1925;51.356;9.530;2023-04-07T07:30:17;3.40;;;3.10;;
3819;SDS011;1925;51.356;9.530;2023-04-07T07:32:43;3.85;;;2.63;;
3819;SDS011;1925;51.356;9.530;2023-04-07T07:35:09;4.30;;;3.55;;
3819;SDS011;1925;51.356;9.530;2023-04-07T07:37:35;4.10;;;3.30;;
3819;SDS011;1925;51.356;9.530;2023-04-07T07:40:01;3.50;;;2.93;;
3819;SDS011;1925;51.356;9.530;2023-04-07T07:42:28;2.87;;;2.67;;
3819;SDS011;1925;51.356;9.530;2023-04-07T07:44:55;2.67;;;2.47;;
3819;SDS011;1925;51.356;9.530;2023-04-07T07:47:21;3.50;;;2.63;;
3819;SDS011;1925;51.356;9.530;2023-04-07T07:49:47;3.42;;;3.13;;
3819;SDS011;1925;51.356;9.530;2023-04-07T07:52:13;3.03;;;2.70;;
3819;SDS011;1925;51.356;9.530;2023-04-07T07:54:39;5.25;;;3.00;;
3819;SDS011;1925;51.356;9.530;2023-04-07T07:57:05;3.47;;;2.90;;
3819;SDS011;1925;51.356;9.530;2023-04-07T07:59:31;4.43;;;3.53;;
3819;SDS011;1925;51.356;9.530;2023-04-07T08:01:57;5.22;;;3.30;;
3819;SDS011;1925;51.356;9.530;2023-04-07T08:04:23;3.97;;;3.57;;
3819;SDS011;1925;51.356;9.530;2023-04-07T08:06:50;3.83;;;3.53;;
3819;SDS011;1925;51.356;9.530;2023-04-07T08:09:16;3.70;;;3.28;;
3819;SDS011;1925;51.356;9.530;2023-04-07T08:11:42;4.13;;;3.72;;
3819;SDS011;1925;51.356;9.530;2023-04-07T08:14:08;3.20;;;2.90;;
3819;SDS011;1925;51.356;9.530;2023-04-07T08:16:34;5.80;;;5.10;;
3819;SDS011;1925;51.356;9.530;2023-04-07T08:19:00;4.37;;;3.93;;
3819;SDS011;1925;51.356;9.530;2023-04-07T08:21:27;4.50;;;3.97;;
3819;SDS011;1925;51.356;9.530;2023-04-07T08:23:53;4.13;;;3.60;;
3819;SDS011;1925;51.356;9.530;2023-04-07T08:26:20;4.85;;;4.35;;
3819;SDS011;1925;51.356;9.530;2023-04-07T08:28:46;5.57;;;4.90;;
3819;SDS011;1925;51.356;9.530;2023-04-07T08:31:12;4.22;;;3.80;;
3819;SDS011;1925;51.356;9.530;2023-04-07T08:33:38;6.90;;;5.07;;
3819;SDS011;1925;51.356;9.530;2023-04-07T08:36:04;5.18;;;4.30;;
3819;SDS011;1925;51.356;9.530;2023-04-07T08:38:30;5.65;;;4.15;;
3819;SDS011;1925;51.356;9.530;2023-04-07T08:41:01;4.30;;;3.70;;
3819;SDS011;1925;51.356;9.530;2023-04-07T08:43:28;4.75;;;3.88;;
3819;SDS011;1925;51.356;9.530;2023-04-07T08:45:55;5.55;;;4.70;;
3819;SDS011;1925;51.356;9.530;2023-04-07T08:48:22;5.80;;;4.15;;
3819;SDS011;1925;51.356;9.530;2023-04-07T08:50:51;5.13;;;4.32;;
3819;SDS011;1925;51.356;9.530;2023-04-07T08:53:18;5.05;;;4.55;;
3819;SDS011;1925;51.356;9.530;2023-04-07T08:55:46;4.45;;;3.85;;
3819;SDS011;1925;51.356;9.530;2023-04-07T08:58:12;4.67;;;4.17;;
3819;SDS011;1925;51.356;9.530;2023-04-07T09:00:39;6.32;;;4.40;;
3819;SDS011;1925;51.356;9.530;2023-04-07T09:03:07;5.15;;;4.45;;
3819;SDS011;1925;51.356;9.530;2023-04-07T09:05:33;5.97;;;5.05;;
3819;SDS011;1925;51.356;9.530;2023-04-07T09:08:00;5.28;;;4.20;;
3819;SDS011;1925;51.356;9.530;2023-04-07T09:10:26;5.78;;;5.20;;
3819;SDS011;1925;51.356;9.530;2023-04-07T09:12:52;6.32;;;5.72;;
3819;SDS011;1925;51.356;9.530;2023-04-07T09:15:18;6.40;;;5.53;;
3819;SDS011;1925;51.356;9.530;2023-04-07T09:17:45;5.95;;;5.35;;
3819;SDS011;1925;51.356;9.530;2023-04-07T09:20:11;6.60;;;5.80;;
3819;SDS011;1925;51.356;9.530;2023-04-07T09:22:37;5.00;;;4.50;;
3819;SDS011;1925;51.356;9.530;2023-04-07T09:27:36;5.78;;;5.18;;
3819;SDS011;1925;51.356;9.530;2023-04-07T09:30:11;7.33;;;6.03;;
3819;SDS011;1925;51.356;9.530;2023-04-07T09:32:41;6.40;;;5.22;;
3819;SDS011;1925;51.356;9.530;2023-04-07T09:35:07;6.60;;;5.90;;
3819;SDS011;1925;51.356;9.530;2023-04-07T09:37:33;5.97;;;5.18;;
3819;SDS011;1925;51.356;9.530;2023-04-07T09:39:59;6.93;;;5.97;;
3819;SDS011;1925;51.356;9.530;2023-04-07T09:42:26;7.30;;;6.07;;
3819;SDS011;1925;51.356;9.530;2023-04-07T09:44:56;7.85;;;5.97;;
3819;SDS011;1925;51.356;9.530;2023-04-07T09:47:25;7.20;;;6.50;;
3819;SDS011;1925;51.356;9.530;2023-04-07T09:49:53;7.30;;;6.45;;
3819;SDS011;1925;51.356;9.530;2023-04-07T09:55:05;7.65;;;6.18;;
3819;SDS011;1925;51.356;9.530;2023-04-07T09:57:32;8.55;;;6.35;;
3819;SDS011;1925;51.356;9.530;2023-04-07T09:59:58;6.78;;;6.07;;
3819;SDS011;1925;51.356;9.530;2023-04-07T10:02:24;6.18;;;5.50;;
3819;SDS011;1925;51.356;9.530;2023-04-07T10:04:50;6.95;;;6.25;;
3819;SDS011;1925;51.356;9.530;2023-04-07T10:07:16;6.72;;;6.13;;
3819;SDS011;1925;51.356;9.530;2023-04-07T10:09:42;7.37;;;6.50;;
3819;SDS011;1925;51.356;9.530;2023-04-07T10:12:08;8.43;;;7.40;;
3819;SDS011;1925;51.356;9.530;2023-04-07T10:14:34;7.73;;;7.03;;
3819;SDS011;1925;51.356;9.530;2023-04-07T10:17:02;9.05;;;8.00;;
3819;SDS011;1925;51.356;9.530;2023-04-07T10:19:31;7.47;;;6.78;;
3819;SDS011;1925;51.356;9.530;2023-04-07T10:21:57;8.63;;;6.90;;
3819;SDS011;1925;51.356;9.530;2023-04-07T10:24:43;7.88;;;7.07;;
3819;SDS011;1925;51.356;9.530;2023-04-07T10:27:12;8.38;;;7.55;;
3819;SDS011;1925;51.356;9.530;2023-04-07T10:29:39;8.98;;;8.00;;
3819;SDS011;1925;51.356;9.530;2023-04-07T10:32:06;8.68;;;7.75;;
3819;SDS011;1925;51.356;9.530;2023-04-07T10:37:14;9.77;;;7.75;;
3819;SDS011;1925;51.356;9.530;2023-04-07T10:39:42;8.25;;;7.45;;
3819;SDS011;1925;51.356;9.530;2023-04-07T10:44:53;8.93;;;7.95;;
3819;SDS011;1925;51.356;9.530;2023-04-07T10:47:19;7.45;;;6.18;;
3819;SDS011;1925;51.356;9.530;2023-04-07T10:52:30;8.35;;;6.80;;
3819;SDS011;1925;51.356;9.530;2023-04-07T10:57:54;9.75;;;8.75;;
3819;SDS011;1925;51.356;9.530;2023-04-07T11:00:26;10.80;;;8.75;;
3819;SDS011;1925;51.356;9.530;2023-04-07T11:02:52;10.80;;;8.45;;
3819;SDS011;1925;51.356;9.530;2023-04-07T11:05:19;8.50;;;7.40;;
3819;SDS011;1925;51.356;9.530;2023-04-07T11:07:47;7.90;;;7.10;;
3819;SDS011;1925;51.356;9.530;2023-04-07T11:10:14;7.80;;;6.97;;
3819;SDS011;1925;51.356;9.530;2023-04-07T11:12:41;10.90;;;8.98;;
3819;SDS011;1925;51.356;9.530;2023-04-07T11:15:19;10.65;;;8.10;;
3819;SDS011;1925;51.356;9.530;2023-04-07T11:17:46;9.43;;;7.70;;
3819;SDS011;1925;51.356;9.530;2023-04-07T11:20:12;9.80;;;7.80;;
3819;SDS011;1925;51.356;9.530;2023-04-07T11:22:38;10.07;;;8.40;;
3819;SDS011;1925;51.356;9.530;2023-04-07T11:25:18;11.20;;;9.55;;
3819;SDS011;1925;51.356;9.530;2023-04-07T11:27:45;9.10;;;8.20;;
3819;SDS011;1925;51.356;9.530;2023-04-07T11:30:11;8.60;;;6.82;;
3819;SDS011;1925;51.356;9.530;2023-04-07T11:32:37;7.87;;;6.90;;
3819;SDS011;1925;51.356;9.530;2023-04-07T11:35:07;8.90;;;8.00;;
3819;SDS011;1925;51.356;9.530;2023-04-07T11:37:33;8.50;;;7.60;;
3819;SDS011;1925;51.356;9.530;2023-04-07T11:39:59;7.65;;;6.95;;
3819;SDS011;1925;51.356;9.530;2023-04-07T11:42:38;8.90;;;8.00;;
3819;SDS011;1925;51.356;9.530;2023-04-07T11:45:04;13.10;;;8.07;;
3819;SDS011;1925;51.356;9.530;2023-04-07T11:47:34;8.50;;;7.60;;
3819;SDS011;1925;51.356;9.530;2023-04-07T11:50:00;9.10;;;7.70;;
3819;SDS011;1925;51.356;9.530;2023-04-07T11:52:26;8.52;;;7.63;;
3819;SDS011;1925;51.356;9.530;2023-04-07T11:54:52;8.70;;;7.35;;
3819;SDS011;1925;51.356;9.530;2023-04-07T11:57:25;10.30;;;8.67;;
3819;SDS011;1925;51.356;9.530;2023-04-07T12:00:07;10.10;;;9.20;;
3819;SDS011;1925;51.356;9.530;2023-04-07T12:02:34;9.45;;;7.72;;
3819;SDS011;1925;51.356;9.530;2023-04-07T12:05:00;9.85;;;7.55;;
3819;SDS011;1925;51.356;9.530;2023-04-07T12:07:26;9.27;;;7.63;;
3819;SDS011;1925;51.356;9.530;2023-04-07T12:09:52;8.20;;;7.40;;
3819;SDS011;1925;51.356;9.530;2023-04-07T12:12:26;9.93;;;7.80;;
3819;SDS011;1925;51.356;9.530;2023-04-07T12:14:52;7.70;;;6.90;;
3819;SDS011;1925;51.356;9.530;2023-04-07T12:17:19;7.70;;;6.73;;
3819;SDS011;1925;51.356;9.530;2023-04-07T12:19:45;8.00;;;7.10;;
3819;SDS011;1925;51.356;9.530;2023-04-07T12:22:11;8.43;;;7.57;;
3819;SDS011;1925;51.356;9.530;2023-04-07T12:24:37;8.50;;;7.70;;
3819;SDS011;1925;51.356;9.530;2023-04-07T12:27:03;8.90;;;7.83;;
3819;SDS011;1925;51.356;9.530;2023-04-07T12:29:29;8.70;;;7.90;;
3819;SDS011;1925;51.356;9.530;2023-04-07T12:31:55;8.87;;;8.10;;
3819;SDS011;1925;51.356;9.530;2023-04-07T12:34:21;8.13;;;7.30;;
3819;SDS011;1925;51.356;9.530;2023-04-07T12:36:47;8.87;;;7.97;;
3819;SDS011;1925;51.356;9.530;2023-04-07T12:39:14;8.93;;;8.03;;
3819;SDS011;1925;51.356;9.530;2023-04-07T12:41:40;8.27;;;7.37;;
3819;SDS011;1925;51.356;9.530;2023-04-07T12:44:06;9.03;;;7.77;;
3819;SDS011;1925;51.356;9.530;2023-04-07T12:46:32;9.73;;;8.40;;
3819;SDS011;1925;51.356;9.530;2023-04-07T12:48:58;9.60;;;7.73;;
3819;SDS011;1925;51.356;9.530;2023-04-07T12:51:25;9.40;;;7.03;;
3819;SDS011;1925;51.356;9.530;2023-04-07T12:53:51;8.70;;;7.63;;
3819;SDS011;1925;51.356;9.530;2023-04-07T12:56:18;7.87;;;7.07;;
3819;SDS011;1925;51.356;9.530;2023-04-07T12:58:46;8.97;;;6.97;;
3819;SDS011;1925;51.356;9.530;2023-04-07T13:01:12;9.63;;;7.40;;
3819;SDS011;1925;51.356;9.530;2023-04-07T13:03:38;10.20;;;8.00;;
3819;SDS011;1925;51.356;9.530;2023-04-07T13:06:04;8.10;;;7.40;;
3819;SDS011;1925;51.356;9.530;2023-04-07T13:08:30;9.87;;;7.50;;
3819;SDS011;1925;51.356;9.530;2023-04-07T13:10:56;12.00;;;8.87;;
3819;SDS011;1925;51.356;9.530;2023-04-07T13:13:22;11.17;;;8.13;;
3819;SDS011;1925;51.356;9.530;2023-04-07T13:15:48;15.20;;;8.30;;
3819;SDS011;1925;51.356;9.530;2023-04-07T13:18:14;8.83;;;7.97;;
3819;SDS011;1925;51.356;9.530;2023-04-07T13:20:40;10.83;;;7.90;;
3819;SDS011;1925;51.356;9.530;2023-04-07T13:23:06;9.00;;;8.07;;
3819;SDS011;1925;51.356;9.530;2023-04-07T13:25:32;9.23;;;7.17;;
3819;SDS011;1925;51.356;9.530;2023-04-07T13:27:58;7.70;;;6.90;;
3819;SDS011;1925;51.356;9.530;2023-04-07T13:30:24;8.77;;;7.80;;
3819;SDS011;1925;51.356;9.530;2023-04-07T13:32:51;8.10;;;7.10;;
3819;SDS011;1925;51.356;9.530;2023-04-07T13:35:17;8.70;;;7.77;;
3819;SDS011;1925;51.356;9.530;2023-04-07T13:37:43;9.10;;;7.93;;
3819;SDS011;1925;51.356;9.530;2023-04-07T13:40:09;9.10;;;7.07;;
3819;SDS011;1925;51.356;9.530;2023-04-07T13:42:36;9.03;;;7.50;;
3819;SDS011;1925;51.356;9.530;2023-04-07T13:45:02;8.83;;;7.17;;
3819;SDS011;1925;51.356;9.530;2023-04-07T13:47:28;14.63;;;9.80;;
3819;SDS011;1925;51.356;9.530;2023-04-07T13:49:58;7.97;;;7.17;;
3819;SDS011;1925;51.356;9.530;2023-04-07T13:52:24;9.73;;;7.77;;
3819;SDS011;1925;51.356;9.530;2023-04-07T13:54:51;8.60;;;7.40;;
3819;SDS011;1925;51.356;9.530;2023-04-07T13:57:17;9.23;;;7.27;;
3819;SDS011;1925;51.356;9.530;2023-04-07T13:59:45;9.20;;;7.27;;
3819;SDS011;1925;51.356;9.530;2023-04-07T14:02:12;7.90;;;7.13;;
3819;SDS011;1925;51.356;9.530;2023-04-07T14:04:38;9.43;;;8.07;;
3819;SDS011;1925;51.356;9.530;2023-04-07T14:07:04;9.47;;;7.83;;
3819;SDS011;1925;51.356;9.530;2023-04-07T14:09:30;8.50;;;7.60;;
3819;SDS011;1925;51.356;9.530;2023-04-07T14:11:56;7.47;;;6.77;;
3819;SDS011;1925;51.356;9.530;2023-04-07T14:14:23;7.37;;;6.70;;
3819;SDS011;1925;51.356;9.530;2023-04-07T14:16:49;8.80;;;7.60;;
3819;SDS011;1925;51.356;9.530;2023-04-07T14:19:17;9.03;;;7.43;;
3819;SDS011;1925;51.356;9.530;2023-04-07T14:21:43;8.77;;;7.97;;
3819;SDS011;1925;51.356;9.530;2023-04-07T14:24:09;10.60;;;8.13;;
3819;SDS011;1925;51.356;9.530;2023-04-07T14:26:35;8.93;;;7.60;;
3819;SDS011;1925;51.356;9.530;2023-04-07T14:29:01;8.00;;;7.23;;
3819;SDS011;1925;51.356;9.530;2023-04-07T14:31:27;9.03;;;6.60;;
3819;SDS011;1925;51.356;9.530;2023-04-07T14:33:53;8.93;;;8.10;;
3819;SDS011;1925;51.356;9.530;2023-04-07T14:36:19;8.27;;;7.47;;
3819;SDS011;1925;51.356;9.530;2023-04-07T14:38:45;8.50;;;7.70;;
3819;SDS011;1925;51.356;9.530;2023-04-07T14:41:11;7.80;;;7.03;;
3819;SDS011;1925;51.356;9.530;2023-04-07T14:43:38;12.27;;;8.60;;
3819;SDS011;1925;51.356;9.530;2023-04-07T14:46:05;8.20;;;7.40;;
3819;SDS011;1925;51.356;9.530;2023-04-07T14:48:30;7.10;;;6.40;;
3819;SDS011;1925;51.356;9.530;2023-04-07T14:50:57;7.67;;;6.97;;
3819;SDS011;1925;51.356;9.530;2023-04-07T14:53:23;8.57;;;7.27;;
3819;SDS011;1925;51.356;9.530;2023-04-07T14:55:49;7.50;;;6.80;;
3819;SDS011;1925;51.356;9.530;2023-04-07T14:58:15;7.27;;;6.57;;
3819;SDS011;1925;51.356;9.530;2023-04-07T15:00:41;7.40;;;6.70;;
3819;SDS011;1925;51.356;9.530;2023-04-07T15:03:07;7.00;;;6.30;;
3819;SDS011;1925;51.356;9.530;2023-04-07T15:05:33;7.80;;;7.10;;
3819;SDS011;1925;51.356;9.530;2023-04-07T15:08:00;7.50;;;6.70;;
3819;SDS011;1925;51.356;9.530;2023-04-07T15:10:25;8.60;;;7.80;;
3819;SDS011;1925;51.356;9.530;2023-04-07T15:12:51;7.13;;;6.40;;
3819;SDS011;1925;51.356;9.530;2023-04-07T15:15:17;8.77;;;7.87;;
3819;SDS011;1925;51.356;9.530;2023-04-07T15:17:43;8.10;;;7.27;;
3819;SDS011;1925;51.356;9.530;2023-04-07T15:20:10;7.10;;;6.50;;
3819;SDS011;1925;51.356;9.530;2023-04-07T15:22:36;7.53;;;6.83;;
3819;SDS011;1925;51.356;9.530;2023-04-07T15:25:02;7.70;;;6.87;;